Time;durP1;ratioP1;P1;durP2;ratioP2;P2;SDS_P1;SDS_P2;PMS_P1;PMS_P2;Temp;Humidity;BMP_temperature;BMP_pressure;BME280_temperature;BME280_humidity;BME280_pressure;Samples;Min_cycle;Max_cycle;Signal;HPM_P1;HPM_P2
2023/03/08 00:01:23;;;;;;;;;29.50;23.00;;;;;4.45;77.05;96639.53;4841980;28;101984;-70
2023/03/08 00:03:54;;;;;;;;;34.50;29.00;;;;;4.43;77.17;96645.09;4844750;29;101966;-71
2023/03/08 00:06:23;;;;;;;;;31.00;29.25;;;;;4.45;77.70;96643.03;4839246;29;108899;-71
2023/03/08 00:08:54;;;;;;;;;30.75;26.75;;;;;4.44;77.08;96636.03;4843079;29;101891;-71
2023/03/08 00:11:21;;;;;;;;;29.75;24.25;;;;;4.46;77.08;96639.31;4842554;29;103230;-70
2023/03/08 00:13:48;;;;;;;;;34.50;29.25;;;;;4.44;77.37;96641.41;4841397;29;102539;-71
2023/03/08 00:16:15;;;;;;;;;31.50;22.75;;;;;4.42;77.69;96645.28;4838952;28;104183;-70
2023/03/08 00:18:42;;;;;;;;;32.00;29.00;;;;;4.41;77.48;96641.78;4839073;29;102369;-71
2023/03/08 00:21:13;;;;;;;;;30.00;26.00;;;;;4.42;77.34;96654.16;4821051;29;102091;-72
2023/03/08 00:23:41;;;;;;;;;35.75;29.25;;;;;4.41;77.40;96651.69;4842801;29;102159;-72
2023/03/08 00:26:09;;;;;;;;;29.50;24.75;;;;;4.40;77.90;96645.53;4841402;29;104098;-72
2023/03/08 00:28:36;;;;;;;;;29.00;22.50;;;;;4.38;78.23;96644.91;4840900;29;102029;-72
2023/03/08 00:31:06;;;;;;;;;31.25;25.00;;;;;4.38;77.68;96649.44;4840123;29;102110;-73
2023/03/08 00:33:34;;;;;;;;;28.25;26.75;;;;;4.37;77.67;96656.63;4843187;29;102237;-72
2023/03/08 00:36:07;;;;;;;;;37.00;31.25;;;;;4.21;78.28;96641.03;4839745;29;104058;-72
2023/03/08 00:38:35;;;;;;;;;39.75;31.00;;;;;4.31;78.31;96662.84;4841556;28;102578;-72
2023/03/08 00:41:03;;;;;;;;;33.50;28.50;;;;;4.28;78.21;96643.69;4838483;29;102390;-72
2023/03/08 00:43:30;;;;;;;;;35.00;26.25;;;;;4.29;78.78;96648.00;4840325;29;102432;-72
2023/03/08 00:45:57;;;;;;;;;31.75;23.25;;;;;4.29;78.49;96646.16;4839968;28;104047;-72
2023/03/08 00:48:24;;;;;;;;;31.00;23.50;;;;;4.23;78.98;96632.81;4842512;29;102072;-72
2023/03/08 00:50:51;;;;;;;;;36.50;24.50;;;;;4.27;78.58;96647.41;4845154;29;102415;-72
2023/03/08 00:53:19;;;;;;;;;28.25;26.25;;;;;4.26;78.45;96646.59;4845057;29;102351;-72
2023/03/08 00:55:57;;;;;;;;;28.25;21.75;;;;;4.27;78.60;96634.88;4843490;29;104125;-73
2023/03/08 00:58:26;;;;;;;;;28.75;24.50;;;;;4.21;78.29;96648.22;4842974;29;102231;-71
2023/03/08 01:00:53;;;;;;;;;35.00;28.50;;;;;4.19;79.21;96643.09;4845533;28;102008;-71
2023/03/08 01:03:21;;;;;;;;;26.00;21.00;;;;;4.21;79.41;96646.38;4845748;29;102330;-72
2023/03/08 01:05:50;;;;;;;;;31.00;24.50;;;;;4.15;79.39;96641.84;4845069;29;104057;-73
2023/03/08 01:08:18;;;;;;;;;23.00;20.00;;;;;4.17;79.26;96649.69;4845517;29;102278;-72
2023/03/08 01:10:58;;;;;;;;;23.75;21.00;;;;;4.15;78.96;96657.91;4843507;29;102059;-72
2023/03/08 01:13:28;;;;;;;;;27.75;23.75;;;;;4.10;79.50;96649.69;4829875;29;102539;-72
2023/03/08 01:15:55;;;;;;;;;21.25;20.75;;;;;4.09;79.09;96644.56;4841122;28;104044;-72
2023/03/08 01:18:23;;;;;;;;;30.50;21.00;;;;;4.10;79.49;96646.22;4843597;29;102219;-72
2023/03/08 01:21:01;;;;;;;;;26.00;21.50;;;;;4.09;79.17;96647.25;4843745;28;106457;-71
2023/03/08 01:23:29;;;;;;;;;32.25;23.25;;;;;4.07;79.53;96641.25;4844152;29;102111;-70
2023/03/08 01:26:03;;;;;;;;;29.75;24.25;;;;;4.07;79.64;96639.41;4844246;29;104083;-70
2023/03/08 01:28:31;;;;;;;;;23.25;19.75;;;;;4.09;78.98;96648.06;4843480;29;102269;-71
2023/03/08 01:31:05;;;;;;;;;25.25;21.75;;;;;4.09;78.60;96642.72;4844090;29;102063;-71
2023/03/08 01:33:32;;;;;;;;;30.75;28.50;;;;;4.04;78.87;96642.50;4844170;29;102252;-71
2023/03/08 01:36:02;;;;;;;;;36.25;26.25;;;;;3.91;79.56;96619.31;4843960;29;103560;-71
2023/03/08 01:38:29;;;;;;;;;33.25;26.75;;;;;4.01;78.13;96634.88;4843271;29;102334;-71
2023/03/08 01:41:01;;;;;;;;;20.00;18.50;;;;;4.03;78.48;96631.00;4843746;29;102404;-71
2023/03/08 01:43:32;;;;;;;;;29.25;23.25;;;;;3.97;78.69;96625.63;4842877;29;102167;-72
2023/03/08 01:46:22;;;;;;;;;35.75;27.50;;;;;3.97;78.45;96636.34;4838824;28;104041;-71
2023/03/08 01:49:04;;;;;;;;;28.00;25.00;;;;;3.93;78.17;96625.25;4841314;29;102295;-71
2023/03/08 01:52:03;;;;;;;;;32.50;26.00;;;;;3.98;77.55;96632.63;4841815;29;102298;-72
2023/03/08 01:54:56;;;;;;;;;28.00;19.75;;;;;3.96;77.80;96634.72;4836944;29;102340;-71
2023/03/08 01:57:29;;;;;;;;;27.50;24.00;;;;;3.97;78.02;96636.34;4835479;29;108734;-72
2023/03/08 02:00:11;;;;;;;;;27.00;24.25;;;;;3.90;77.84;96639.03;4838364;28;102115;-71
2023/03/08 02:02:57;;;;;;;;;25.25;20.00;;;;;3.91;77.75;96634.50;4817694;29;101980;-71
2023/03/08 02:05:25;;;;;;;;;28.75;24.50;;;;;3.52;78.13;96563.19;4826040;29;102011;-71
2023/03/08 02:08:03;;;;;;;;;25.75;22.75;;;;;3.89;77.24;96628.53;4831436;29;104001;-72
2023/03/08 02:10:52;;;;;;;;;23.25;20.50;;;;;3.92;77.26;96620.91;4840741;29;111151;-71
2023/03/08 02:13:40;;;;;;;;;31.50;24.50;;;;;3.91;77.27;96626.50;4840541;29;102015;-71
2023/03/08 02:16:27;;;;;;;;;25.00;20.00;;;;;3.89;77.34;96626.69;4840916;28;102102;-71
2023/03/08 02:19:28;;;;;;;;;24.75;20.25;;;;;3.88;76.81;96632.22;4839798;29;109915;-71
2023/03/08 02:22:30;;;;;;;;;26.00;22.50;;;;;3.87;76.92;96627.94;4838996;29;101932;-71
2023/03/08 02:25:35;;;;;;;;;36.25;25.50;;;;;3.87;76.90;96639.44;4839001;29;102098;-71
2023/03/08 02:28:03;;;;;;;;;31.25;26.25;;;;;3.85;77.75;96635.31;4831919;29;102690;-71
2023/03/08 02:30:33;;;;;;;;;26.25;24.00;;;;;3.84;77.06;96636.34;4841770;28;104023;-71
2023/03/08 02:33:00;;;;;;;;;29.25;23.50;;;;;3.86;76.64;96634.31;4843109;28;102628;-71
2023/03/08 02:35:28;;;;;;;;;29.75;20.00;;;;;3.82;76.64;96641.94;4841826;29;101975;-71
2023/03/08 02:37:55;;;;;;;;;25.75;21.25;;;;;3.81;76.89;96639.44;4845316;29;101942;-71
2023/03/08 02:40:22;;;;;;;;;17.75;15.25;;;;;3.83;76.83;96640.03;4840655;29;104063;-71
2023/03/08 02:42:48;;;;;;;;;23.50;17.25;;;;;3.78;77.68;96635.31;4843411;29;102170;-71
2023/03/08 02:45:19;;;;;;;;;21.00;17.00;;;;;3.76;77.27;96647.25;4843315;29;102149;-71
2023/03/08 02:47:46;;;;;;;;;15.00;14.00;;;;;3.73;77.34;96647.69;4843316;29;102231;-71
2023/03/08 02:50:12;;;;;;;;;23.50;19.75;;;;;3.72;77.26;96652.19;4840053;29;104560;-71
2023/03/08 02:52:39;;;;;;;;;26.00;21.50;;;;;3.71;77.04;96671.09;4843098;29;102926;-71
2023/03/08 02:55:07;;;;;;;;;24.00;20.50;;;;;3.70;77.53;96661.44;4840357;29;102239;-72
2023/03/08 02:57:34;;;;;;;;;37.75;30.25;;;;;3.55;77.44;96662.47;4843735;29;102224;-71
2023/03/08 03:00:01;;;;;;;;;34.25;31.25;;;;;3.56;78.01;96669.44;4842604;28;104015;-71
2023/03/08 03:02:28;;;;;;;;;40.50;29.75;;;;;3.50;77.52;96675.63;4843588;29;101995;-71
2023/03/08 03:04:55;;;;;;;;;34.50;25.50;;;;;3.54;76.96;96671.53;4845080;29;102121;-73
2023/03/08 03:07:22;;;;;;;;;30.75;23.00;;;;;3.57;77.74;96679.13;4843161;29;102999;-71
2023/03/08 03:09:49;;;;;;;;;28.00;20.50;;;;;3.56;77.36;96674.78;4843114;29;104526;-70
2023/03/08 03:12:16;;;;;;;;;25.00;20.00;;;;;3.53;77.73;96683.22;4843092;29;102168;-72
2023/03/08 03:14:43;;;;;;;;;24.00;19.00;;;;;3.53;77.01;96688.56;4839140;29;111335;-71
2023/03/08 03:17:09;;;;;;;;;31.75;26.25;;;;;3.46;77.58;96706.44;4840802;29;102313;-71
2023/03/08 03:19:37;;;;;;;;;31.25;23.75;;;;;3.51;77.56;96714.66;4841533;29;104026;-71
2023/03/08 03:22:04;;;;;;;;;26.75;24.75;;;;;3.54;77.37;96702.75;4841335;29;102906;-72
2023/03/08 03:24:31;;;;;;;;;30.00;26.25;;;;;3.54;78.06;96718.78;4840027;29;101937;-71
2023/03/08 03:26:58;;;;;;;;;29.25;25.75;;;;;3.57;77.40;96724.53;4841716;28;104373;-70
2023/03/08 03:29:25;;;;;;;;;32.25;27.00;;;;;3.58;76.31;96725.38;4841725;29;103818;-70
2023/03/08 03:31:52;;;;;;;;;31.75;25.50;;;;;3.55;76.42;96726.59;4840452;29;103288;-70
2023/03/08 03:34:18;;;;;;;;;30.00;24.50;;;;;3.56;76.72;96724.72;4842065;29;102322;-71
2023/03/08 03:36:45;;;;;;;;;27.50;22.25;;;;;3.56;76.73;96725.56;4843263;29;102008;-71
2023/03/08 03:39:12;;;;;;;;;29.25;25.50;;;;;3.59;76.69;96733.19;4839071;29;104217;-71
2023/03/08 03:41:39;;;;;;;;;32.00;23.25;;;;;3.54;76.58;96740.16;4842686;29;102182;-71
2023/03/08 03:44:06;;;;;;;;;29.00;22.75;;;;;3.57;76.71;96737.91;4842608;29;102275;-71
2023/03/08 03:46:33;;;;;;;;;36.00;26.25;;;;;3.59;75.90;96743.88;4840408;28;102001;-71
2023/03/08 03:49:00;;;;;;;;;32.50;24.50;;;;;3.63;76.37;96744.28;4842536;29;104013;-71
2023/03/08 03:51:27;;;;;;;;;26.75;22.00;;;;;3.60;75.27;96744.69;4845155;29;102188;-71
2023/03/08 03:53:54;;;;;;;;;30.00;21.00;;;;;3.61;75.97;96754.34;4841649;29;102329;-72
2023/03/08 03:56:23;;;;;;;;;39.25;27.75;;;;;3.38;76.00;96727.16;4842471;29;102649;-71
2023/03/08 03:58:51;;;;;;;;;25.25;20.25;;;;;3.57;75.30;96756.59;4839897;29;104035;-71
2023/03/08 04:01:23;;;;;;;;;29.00;25.25;;;;;3.47;75.02;96772.19;4841921;28;104555;-70
2023/03/08 04:03:51;;;;;;;;;23.25;20.75;;;;;3.54;75.66;96767.72;4841124;29;101911;-72
2023/03/08 04:06:30;;;;;;;;;28.75;26.25;;;;;3.45;75.77;96768.09;4842895;29;103244;-71
2023/03/08 04:09:01;;;;;;;;;24.75;17.00;;;;;3.50;74.94;96769.13;4839977;29;108924;-72
2023/03/08 04:11:33;;;;;;;;;21.50;20.75;;;;;3.40;74.86;96765.19;4838812;29;105149;-72
2023/03/08 04:14:00;;;;;;;;;25.00;23.00;;;;;3.43;74.28;96773.63;4820530;29;101931;-72
2023/03/08 04:16:30;;;;;;;;;25.00;22.50;;;;;3.41;74.25;96766.84;4841798;28;102365;-72
2023/03/08 04:19:00;;;;;;;;;25.75;22.00;;;;;3.56;74.27;96783.50;4840895;29;108974;-72
2023/03/08 04:21:27;;;;;;;;;24.50;18.25;;;;;3.54;74.56;96778.41;4840602;29;102138;-71
2023/03/08 04:23:55;;;;;;;;;20.50;20.25;;;;;3.53;75.09;96776.75;4844276;28;103128;-72
2023/03/08 04:26:23;;;;;;;;;22.25;19.00;;;;;3.54;74.28;96783.75;4840119;29;101988;-71
2023/03/08 04:28:50;;;;;;;;;20.25;19.00;;;;;3.51;75.01;96777.97;4838488;28;104008;-72
2023/03/08 04:31:24;;;;;;;;;23.25;16.75;;;;;3.47;74.72;96784.72;4840868;29;102346;-72
2023/03/08 04:33:52;;;;;;;;;24.50;19.25;;;;;3.44;74.27;96764.59;4838419;29;102065;-72
2023/03/08 04:36:20;;;;;;;;;20.00;16.50;;;;;3.46;74.49;96759.88;4839538;29;101972;-71
2023/03/08 04:38:48;;;;;;;;;18.75;17.25;;;;;3.44;73.79;96764.59;4840212;29;104088;-71
2023/03/08 04:41:15;;;;;;;;;26.25;21.25;;;;;3.36;74.07;96753.25;4841049;29;102443;-71
2023/03/08 04:43:51;;;;;;;;;34.00;25.50;;;;;3.37;73.91;96770.94;4838086;29;102240;-72
2023/03/08 04:46:21;;;;;;;;;24.25;14.25;;;;;3.36;74.16;96772.78;4837090;29;102189;-71
2023/03/08 04:48:51;;;;;;;;;20.75;19.25;;;;;3.37;73.19;96766.44;4840064;29;103605;-72
2023/03/08 04:51:19;;;;;;;;;31.00;25.25;;;;;3.35;74.21;96781.00;4840690;29;110823;-72
2023/03/08 04:53:46;;;;;;;;;24.00;17.25;;;;;3.31;73.56;96780.56;4839714;29;102147;-71
2023/03/08 04:56:15;;;;;;;;;10.50;9.00;;;;;3.35;73.31;96775.66;4843043;29;102082;-72
2023/03/08 04:58:43;;;;;;;;;20.50;18.00;;;;;3.34;73.42;96776.66;4839282;29;104094;-71
2023/03/08 05:01:15;;;;;;;;;20.50;18.75;;;;;3.31;72.56;96787.75;4841178;28;102058;-72
2023/03/08 05:03:43;;;;;;;;;20.00;14.75;;;;;3.34;72.75;96785.50;4839988;29;102311;-71
2023/03/08 05:06:13;;;;;;;;;24.50;17.75;;;;;3.32;72.88;96782.22;4840375;29;102026;-71
2023/03/08 05:08:40;;;;;;;;;24.25;20.50;;;;;3.23;73.35;96770.06;4828287;29;104112;-71
2023/03/08 05:11:07;;;;;;;;;27.50;19.25;;;;;3.24;72.59;96774.41;4839376;29;101981;-71
2023/03/08 05:13:37;;;;;;;;;28.25;16.75;;;;;3.25;72.80;96789.38;4839086;29;102981;-71
2023/03/08 05:16:06;;;;;;;;;22.50;20.00;;;;;3.22;72.71;96789.78;4841110;28;102484;-71
2023/03/08 05:18:34;;;;;;;;;25.50;21.25;;;;;3.18;72.94;96793.88;4842653;28;106486;-71
2023/03/08 05:21:13;;;;;;;;;31.25;25.25;;;;;3.12;72.66;96800.84;4839877;29;102091;-71
2023/03/08 05:23:40;;;;;;;;;24.75;21.25;;;;;3.09;72.66;96817.25;4840210;29;102239;-71
2023/03/08 05:26:10;;;;;;;;;25.50;21.25;;;;;3.12;72.82;96810.69;4822968;29;102273;-71
2023/03/08 05:28:37;;;;;;;;;20.00;18.50;;;;;3.17;73.24;96813.59;4841590;29;104181;-71
2023/03/08 05:31:14;;;;;;;;;28.50;20.00;;;;;2.96;73.01;96795.00;4840978;29;102128;-71
2023/03/08 05:33:42;;;;;;;;;21.50;20.00;;;;;3.11;72.02;96815.19;4838731;28;102164;-72
2023/03/08 05:36:10;;;;;;;;;18.25;16.50;;;;;3.06;72.56;96798.94;4844555;29;102006;-71
2023/03/08 05:38:37;;;;;;;;;24.50;19.75;;;;;3.11;72.59;96809.84;4842791;29;103956;-71
2023/03/08 05:41:07;;;;;;;;;28.00;18.00;;;;;3.15;73.15;96811.09;4842598;29;102484;-71
2023/03/08 05:43:34;;;;;;;;;19.00;15.50;;;;;3.15;73.06;96821.00;4842981;29;103466;-71
2023/03/08 05:46:06;;;;;;;;;12.75;11.50;;;;;3.17;72.30;96813.59;4843865;29;102454;-71
2023/03/08 05:48:55;;;;;;;;;16.00;14.75;;;;;3.14;72.58;96832.69;4843036;29;106255;-72
2023/03/08 05:51:22;;;;;;;;;20.75;15.75;;;;;3.04;72.89;96830.38;4841422;29;102066;-72
2023/03/08 05:53:49;;;;;;;;;23.25;17.75;;;;;3.06;72.65;96839.00;4842368;29;102353;-71
2023/03/08 05:56:21;;;;;;;;;14.50;13.00;;;;;3.08;71.98;96841.47;4844119;29;101910;-72
2023/03/08 05:58:49;;;;;;;;;15.50;11.50;;;;;3.10;72.04;96834.94;4838994;29;104049;-73
2023/03/08 06:01:20;;;;;;;;;10.75;10.00;;;;;3.11;71.50;96830.38;4842950;28;102020;-73
2023/03/08 06:03:50;;;;;;;;;16.50;14.00;;;;;3.09;71.38;96827.09;4841040;29;102270;-73
2023/03/08 06:06:18;;;;;;;;;16.00;10.50;;;;;3.09;72.07;96817.25;4844066;29;102195;-72
2023/03/08 06:08:46;;;;;;;;;14.00;10.50;;;;;3.08;72.17;96822.78;4843539;29;103771;-73
2023/03/08 06:11:14;;;;;;;;;15.50;11.50;;;;;3.02;72.28;96826.22;4843381;29;102033;-72
2023/03/08 06:13:41;;;;;;;;;17.50;14.25;;;;;3.08;72.43;96844.16;4841039;29;101970;-73
2023/03/08 06:16:09;;;;;;;;;19.25;15.00;;;;;3.14;71.54;96846.03;4842430;28;102098;-73
2023/03/08 06:18:37;;;;;;;;;21.25;20.00;;;;;3.20;71.26;96861.25;4842225;29;104031;-73
2023/03/08 06:21:08;;;;;;;;;19.50;16.25;;;;;3.34;71.63;96868.31;4843042;29;102247;-72
2023/03/08 06:23:35;;;;;;;;;26.75;21.75;;;;;3.33;71.04;96876.53;4842956;29;102314;-73
2023/03/08 06:26:03;;;;;;;;;12.00;11.25;;;;;3.37;71.22;96888.47;4843926;29;102028;-73
2023/03/08 06:28:30;;;;;;;;;20.75;17.25;;;;;3.40;70.06;96893.41;4841438;29;103798;-72
2023/03/08 06:30:58;;;;;;;;;24.75;21.50;;;;;3.33;70.95;96895.25;4845850;29;102141;-73
2023/03/08 06:33:27;;;;;;;;;19.25;16.00;;;;;3.36;70.97;96897.50;4838403;29;102372;-72
2023/03/08 06:36:04;;;;;;;;;23.75;19.25;;;;;3.26;70.37;96895.19;4845047;29;102008;-71
2023/03/08 06:38:33;;;;;;;;;23.25;18.50;;;;;3.37;70.77;96912.53;4842114;29;108952;-73
2023/03/08 06:41:01;;;;;;;;;20.75;19.50;;;;;3.32;70.44;96901.59;4843249;29;102179;-72
2023/03/08 06:43:28;;;;;;;;;17.50;15.00;;;;;3.45;70.12;96907.84;4845208;29;102143;-73
2023/03/08 06:45:56;;;;;;;;;18.00;17.25;;;;;3.56;69.10;96914.44;4843875;29;102077;-73
2023/03/08 06:48:23;;;;;;;;;25.75;21.50;;;;;3.46;69.79;96892.63;4841219;29;104159;-72
2023/03/08 06:50:50;;;;;;;;;20.00;17.25;;;;;3.64;69.57;96903.63;4839691;29;102372;-73
2023/03/08 06:53:17;;;;;;;;;22.75;20.25;;;;;3.70;68.83;96883.25;4841989;29;102063;-73
2023/03/08 06:55:44;;;;;;;;;20.50;17.25;;;;;3.75;69.25;96891.50;4836859;28;102842;-72
2023/03/08 06:58:11;;;;;;;;;19.25;16.75;;;;;3.68;68.94;96906.69;4823628;28;104231;-72
2023/03/08 07:00:38;;;;;;;;;20.75;17.75;;;;;3.59;69.16;96928.25;4821830;29;102038;-72
2023/03/08 07:03:05;;;;;;;;;33.50;25.00;;;;;3.80;68.77;96924.63;4824307;29;102315;-72
2023/03/08 07:05:32;;;;;;;;;19.25;16.50;;;;;3.95;68.27;96932.53;4825226;29;102027;-73
2023/03/08 07:07:59;;;;;;;;;21.50;21.25;;;;;3.98;68.04;96926.75;4824721;29;104046;-71
2023/03/08 07:10:26;;;;;;;;;20.75;18.50;;;;;3.98;68.25;96932.09;4826582;29;102098;-72
2023/03/08 07:12:53;;;;;;;;;21.00;15.50;;;;;4.07;66.79;96928.22;4824294;29;102086;-73
2023/03/08 07:15:22;;;;;;;;;21.25;15.00;;;;;4.13;68.22;96922.09;4823686;29;104051;-72
2023/03/08 07:17:53;;;;;;;;;19.25;16.00;;;;;4.10;67.17;96937.72;4821119;29;104039;-72
2023/03/08 07:20:22;;;;;;;;;21.25;16.25;;;;;4.29;66.16;96929.72;4824981;29;102142;-72
2023/03/08 07:22:49;;;;;;;;;26.00;18.50;;;;;4.40;65.55;96929.16;4811599;29;102135;-72
2023/03/08 07:25:19;;;;;;;;;14.25;10.75;;;;;4.48;65.88;96926.28;4824684;29;101889;-72
2023/03/08 07:27:46;;;;;;;;;15.50;13.00;;;;;4.57;65.66;96942.13;4819552;29;104064;-73
2023/03/08 07:30:15;;;;;;;;;21.75;17.25;;;;;4.58;65.31;96941.94;4821215;29;102346;-72
2023/03/08 07:32:42;;;;;;;;;20.75;17.75;;;;;4.71;65.19;96936.59;4818087;29;102127;-72
2023/03/08 07:35:11;;;;;;;;;15.75;15.00;;;;;4.73;64.13;96933.69;4825482;29;102253;-72
2023/03/08 07:37:39;;;;;;;;;16.00;14.00;;;;;4.80;64.92;96926.50;4823088;29;104042;-72
2023/03/08 07:40:07;;;;;;;;;17.25;13.75;;;;;4.77;64.12;96935.75;4823865;29;103293;-72
2023/03/08 07:42:34;;;;;;;;;17.25;16.00;;;;;4.89;64.31;96933.28;4823162;29;102431;-72
2023/03/08 07:45:02;;;;;;;;;18.25;13.00;;;;;5.05;63.79;96953.47;4824181;29;102366;-72
2023/03/08 07:47:29;;;;;;;;;22.50;21.00;;;;;4.68;63.43;96962.94;4823760;29;104859;-72
2023/03/08 07:49:56;;;;;;;;;33.25;23.00;;;;;4.33;65.24;96968.41;4827256;29;101962;-72
2023/03/08 07:52:30;;;;;;;;;24.25;20.75;;;;;4.35;65.75;96985.13;4823571;29;102086;-72
2023/03/08 07:54:57;;;;;;;;;20.25;16.75;;;;;4.49;64.82;96970.75;4828669;29;102403;-73
2023/03/08 07:57:24;;;;;;;;;21.75;17.25;;;;;4.51;65.31;96973.19;4839771;29;111549;-72
2023/03/08 07:59:51;;;;;;;;;18.50;16.25;;;;;4.83;64.95;96993.03;4839940;29;102567;-73
2023/03/08 08:02:20;;;;;;;;;29.00;23.50;;;;;4.83;64.46;96968.91;4842092;29;101940;-72
2023/03/08 08:04:47;;;;;;;;;30.50;24.00;;;;;4.79;64.67;96981.06;4841577;29;102423;-73
2023/03/08 08:07:15;;;;;;;;;30.25;23.50;;;;;4.81;64.34;96982.53;4840408;29;104030;-73
2023/03/08 08:09:42;;;;;;;;;23.25;20.75;;;;;4.93;64.49;96988.91;4836320;29;102120;-72
2023/03/08 08:12:10;;;;;;;;;26.75;20.00;;;;;5.05;64.65;96975.72;4839085;29;102859;-73
2023/03/08 08:14:37;;;;;;;;;21.75;20.00;;;;;5.04;63.23;96968.75;4842508;28;102047;-73
2023/03/08 08:17:04;;;;;;;;;23.25;22.00;;;;;4.99;64.16;96962.34;4840069;28;104082;-72
2023/03/08 08:19:31;;;;;;;;;21.00;18.25;;;;;5.18;63.36;96958.84;4840249;29;102022;-72
2023/03/08 08:21:59;;;;;;;;;27.00;22.00;;;;;4.94;63.55;96954.94;4844072;29;102040;-72
2023/03/08 08:24:26;;;;;;;;;27.00;25.25;;;;;5.00;63.55;96964.81;4842311;29;102196;-73
2023/03/08 08:26:53;;;;;;;;;31.25;26.25;;;;;4.94;64.39;96954.94;4840458;28;104042;-73
2023/03/08 08:29:21;;;;;;;;;30.50;26.00;;;;;4.80;64.70;96951.44;4840072;28;102098;-73
2023/03/08 08:31:48;;;;;;;;;25.50;24.00;;;;;4.91;64.95;96958.00;4839643;29;102074;-72
2023/03/08 08:34:14;;;;;;;;;26.00;22.50;;;;;5.27;65.08;96953.03;4841340;29;102155;-72
2023/03/08 08:36:41;;;;;;;;;32.50;28.50;;;;;5.25;62.83;96963.16;4839756;29;105191;-73
2023/03/08 08:39:08;;;;;;;;;32.00;29.00;;;;;5.32;64.28;96955.09;4840233;29;102106;-73
2023/03/08 08:41:35;;;;;;;;;28.75;28.00;;;;;5.27;63.11;96965.59;4841884;29;101953;-72
2023/03/08 08:44:03;;;;;;;;;27.00;23.00;;;;;5.45;63.88;96959.63;4840953;29;102210;-73
2023/03/08 08:46:32;;;;;;;;;24.25;22.25;;;;;5.59;62.66;96954.00;4838573;29;104048;-72
2023/03/08 08:49:00;;;;;;;;;26.50;22.25;;;;;5.74;62.50;96949.25;4841229;28;104905;-72
2023/03/08 08:51:27;;;;;;;;;24.75;19.75;;;;;5.83;61.28;96939.09;4841210;29;102261;-72
2023/03/08 08:53:54;;;;;;;;;30.25;25.25;;;;;5.89;62.26;96949.03;4841417;28;102134;-73
2023/03/08 08:56:26;;;;;;;;;30.25;28.50;;;;;5.67;64.14;96944.94;4836597;29;104052;-73
2023/03/08 08:58:56;;;;;;;;;41.00;34.25;;;;;5.12;67.22;96955.13;4837823;28;103301;-73
2023/03/08 09:01:25;;;;;;;;;44.25;35.75;;;;;5.09;67.65;96955.53;4840378;29;102335;-72
2023/03/08 09:03:52;;;;;;;;;41.25;36.50;;;;;4.83;67.85;96960.88;4841351;29;102018;-72
2023/03/08 09:06:22;;;;;;;;;45.75;33.00;;;;;5.09;68.30;96958.22;4841406;29;104160;-72
2023/03/08 09:08:53;;;;;;;;;48.75;35.75;;;;;5.02;68.32;96964.59;4841226;29;101963;-72
2023/03/08 09:11:21;;;;;;;;;42.00;35.50;;;;;4.88;67.70;96956.56;4841861;29;102187;-71
2023/03/08 09:13:49;;;;;;;;;39.75;34.00;;;;;4.80;66.89;96943.38;4841251;29;102239;-72
2023/03/08 09:16:23;;;;;;;;;36.75;32.00;;;;;5.19;67.04;96945.22;4847087;28;104187;-71
2023/03/08 09:18:51;;;;;;;;;44.50;35.00;;;;;5.28;66.13;96960.06;4843485;29;101954;-72
2023/03/08 09:21:18;;;;;;;;;35.75;31.00;;;;;5.48;66.49;96953.84;4842825;29;102078;-72
2023/03/08 09:23:45;;;;;;;;;41.75;34.75;;;;;5.75;68.65;96963.47;4845991;29;102091;-72
2023/03/08 09:26:12;;;;;;;;;43.25;35.25;;;;;5.71;69.04;96970.31;4838623;29;104062;-72
2023/03/08 09:28:39;;;;;;;;;49.50;39.75;;;;;5.19;71.88;96969.34;4843526;29;101983;-72
2023/03/08 09:31:11;;;;;;;;;45.50;35.25;;;;;5.23;71.61;96967.88;4842663;28;102003;-71
2023/03/08 09:33:43;;;;;;;;;47.25;40.00;;;;;5.28;71.88;96964.59;4842032;29;102516;-72
2023/03/08 09:36:11;;;;;;;;;46.00;39.50;;;;;4.99;72.88;96965.03;4843840;29;104021;-72
2023/03/08 09:38:38;;;;;;;;;51.25;39.50;;;;;5.05;72.86;96967.69;4841614;29;102047;-72
2023/03/08 09:41:27;;;;;;;;;41.00;36.25;;;;;5.17;74.08;96967.91;4843134;29;101995;-71
2023/03/08 09:44:44;;;;;;;;;47.00;37.00;;;;;5.26;72.50;96955.94;4843220;29;102031;-72
2023/03/08 09:47:47;;;;;;;;;47.50;37.75;;;;;5.34;71.34;96964.59;4842171;29;108702;-72
2023/03/08 09:50:24;;;;;;;;;43.50;34.00;;;;;5.53;70.77;96959.41;4820658;29;102190;-71
2023/03/08 09:53:01;;;;;;;;;55.00;43.67;;;;;5.50;70.75;96967.84;4841010;29;101817;-71
2023/03/08 09:55:31;;;;;;;;;48.00;38.25;;;;;5.75;71.25;96950.06;4842063;29;102480;-72
2023/03/08 09:58:04;;;;;;;;;43.25;35.75;;;;;5.68;68.53;96957.28;4843526;29;108805;-71
2023/03/08 10:00:35;;;;;;;;;43.00;33.50;;;;;5.92;68.46;96948.59;4840259;28;102094;-71
2023/03/08 10:03:11;;;;;;;;;45.00;38.25;;;;;5.96;67.09;96952.50;4842329;29;102006;-71
2023/03/08 10:05:50;;;;;;;;;41.25;32.25;;;;;6.16;66.72;96952.41;4843046;29;102501;-72
2023/03/08 10:08:25;;;;;;;;;44.75;36.50;;;;;5.98;64.95;96945.06;4839926;29;103825;-71
2023/03/08 10:10:55;;;;;;;;;48.25;36.50;;;;;6.15;64.44;96940.88;4843395;29;102194;-72
2023/03/08 10:13:37;;;;;;;;;51.50;41.25;;;;;6.25;66.53;96935.03;4841647;29;102032;-72
2023/03/08 10:16:30;;;;;;;;;44.33;36.67;;;;;6.36;65.46;96946.94;4844008;28;101979;-71
2023/03/08 10:19:20;;;;;;;;;54.25;42.00;;;;;6.32;66.02;96961.81;4839960;29;107883;-71
2023/03/08 10:21:48;;;;;;;;;42.25;36.50;;;;;6.20;64.68;96942.91;4839822;29;102938;-71
2023/03/08 10:24:33;;;;;;;;;49.00;36.75;;;;;6.22;64.95;96936.28;4842930;29;102565;-71
2023/03/08 10:27:14;;;;;;;;;44.00;38.75;;;;;6.13;65.41;96931.38;4842870;29;101971;-71
2023/03/08 10:29:48;;;;;;;;;50.25;39.25;;;;;5.75;66.26;96928.63;4839928;29;108690;-71
2023/03/08 10:32:15;;;;;;;;;46.25;39.00;;;;;5.63;67.55;96933.78;4838384;29;102192;-71
2023/03/08 10:34:43;;;;;;;;;41.00;34.50;;;;;5.83;66.32;96925.69;4842536;29;101847;-71
2023/03/08 10:37:10;;;;;;;;;42.25;37.75;;;;;5.82;66.01;96924.03;4843680;29;102330;-71
2023/03/08 10:39:52;;;;;;;;;50.00;35.75;;;;;5.86;66.15;96919.91;4841983;29;104038;-72
2023/03/08 10:42:22;;;;;;;;;37.75;33.00;;;;;5.99;66.66;96916.38;4839977;28;102198;-71
2023/03/08 10:44:59;;;;;;;;;38.25;31.00;;;;;6.32;66.10;96910.81;4842655;29;102110;-71
2023/03/08 10:47:30;;;;;;;;;33.00;27.00;;;;;6.72;61.95;96914.91;4844128;29;102081;-71
2023/03/08 10:50:19;;;;;;;;;40.50;26.75;;;;;6.84;61.35;96906.97;4842115;29;108813;-72
2023/03/08 10:52:49;;;;;;;;;33.00;32.00;;;;;6.91;63.91;96913.94;4842422;29;102238;-72
2023/03/08 10:55:20;;;;;;;;;30.00;29.00;;;;;6.92;63.57;96925.50;4839632;29;102301;-72
2023/03/08 10:57:56;;;;;;;;;36.50;30.75;;;;;6.95;62.78;96907.06;4839829;29;102041;-72
2023/03/08 11:00:35;;;;;;;;;43.75;35.00;;;;;6.96;63.22;96897.16;4841690;29;104031;-71
2023/03/08 11:03:19;;;;;;;;;31.25;25.25;;;;;7.27;62.95;96901.63;4839543;29;102287;-72
2023/03/08 11:06:00;;;;;;;;;33.00;29.25;;;;;7.21;59.47;96907.88;4842192;29;102311;-72
2023/03/08 11:08:33;;;;;;;;;25.75;20.00;;;;;7.04;56.69;96905.75;4843381;29;102237;-72
2023/03/08 11:11:02;;;;;;;;;19.00;18.00;;;;;7.04;55.34;96897.69;4840813;29;108817;-72
2023/03/08 11:13:33;;;;;;;;;21.25;18.50;;;;;7.12;55.60;96878.59;4841810;29;102229;-72
2023/03/08 11:16:18;;;;;;;;;17.75;14.50;;;;;7.35;53.95;96887.88;4844489;28;102064;-72
2023/03/08 11:18:50;;;;;;;;;17.75;15.75;;;;;7.08;54.18;96887.31;4836908;28;102335;-72
2023/03/08 11:21:32;;;;;;;;;20.00;16.00;;;;;7.29;53.58;96884.25;4840194;29;104019;-71
2023/03/08 11:24:10;;;;;;;;;29.25;22.00;;;;;7.20;54.55;96885.56;4840263;29;102148;-72
2023/03/08 11:26:57;;;;;;;;;18.00;16.50;;;;;7.14;53.32;96881.91;4842718;28;102051;-71
2023/03/08 11:29:50;;;;;;;;;18.75;14.50;;;;;7.18;53.29;96877.72;4840466;29;102319;-72
2023/03/08 11:32:38;;;;;;;;;16.00;14.00;;;;;7.28;54.23;96887.97;4840585;29;108493;-71
2023/03/08 11:35:38;;;;;;;;;16.25;14.00;;;;;7.23;54.22;96878.91;4837084;29;102276;-71